sensor_id;sensor_type;location;lat;lon;timestamp;pressure;altitude;pressure_sealevel;temperature;humidity
59608;BME280;45426;44.726;10.390;2022-09-01T00:00:35;100240.59;;;24.28;100.00
59608;BME280;45426;44.726;10.390;2022-09-01T00:03:02;100235.84;;;24.28;100.00
59608;BME280;45426;44.726;10.390;2022-09-01T00:05:28;100238.50;;;24.15;100.00
59608;BME280;45426;44.726;10.390;2022-09-01T00:07:57;100241.94;;;24.03;100.00
59608;BME280;45426;44.726;10.390;2022-09-01T00:10:23;100241.50;;;23.84;100.00
59608;BME280;45426;44.726;10.390;2022-09-01T00:12:48;100236.34;;;24.23;100.00
59608;BME280;45426;44.726;10.390;2022-09-01T00:15:14;100229.78;;;23.97;100.00
59608;BME280;45426;44.726;10.390;2022-09-01T00:17:40;100242.16;;;23.72;100.00
59608;BME280;45426;44.726;10.390;2022-09-01T00:20:06;100239.38;;;23.72;100.00
59608;BME280;45426;44.726;10.390;2022-09-01T00:22:31;100243.91;;;22.72;100.00
59608;BME280;45426;44.726;10.390;2022-09-01T00:24:58;100247.78;;;23.01;100.00
59608;BME280;45426;44.726;10.390;2022-09-01T00:27:23;100247.91;;;22.43;100.00
59608;BME280;45426;44.726;10.390;2022-09-01T00:29:48;100242.31;;;22.47;100.00
59608;BME280;45426;44.726;10.390;2022-09-01T00:32:14;100247.22;;;22.36;100.00
59608;BME280;45426;44.726;10.390;2022-09-01T00:34:42;100250.50;;;22.54;100.00
59608;BME280;45426;44.726;10.390;2022-09-01T00:37:07;100260.56;;;22.95;100.00
59608;BME280;45426;44.726;10.390;2022-09-01T00:39:33;100258.06;;;23.48;100.00
59608;BME280;45426;44.726;10.390;2022-09-01T00:42:00;100253.03;;;23.63;100.00
59608;BME280;45426;44.726;10.390;2022-09-01T00:44:26;100247.75;;;23.69;100.00
59608;BME280;45426;44.726;10.390;2022-09-01T00:46:53;100248.97;;;23.48;100.00
59608;BME280;45426;44.726;10.390;2022-09-01T00:51:56;100249.69;;;23.72;100.00
59608;BME280;45426;44.726;10.390;2022-09-01T00:54:39;100250.78;;;23.98;100.00
59608;BME280;45426;44.726;10.390;2022-09-01T00:57:07;100247.59;;;23.79;100.00
59608;BME280;45426;44.726;10.390;2022-09-01T00:59:34;100244.50;;;23.94;100.00
59608;BME280;45426;44.726;10.390;2022-09-01T01:02:00;100249.19;;;23.57;100.00
59608;BME280;45426;44.726;10.390;2022-09-01T01:04:26;100244.06;;;23.75;100.00
59608;BME280;45426;44.726;10.390;2022-09-01T01:06:53;100255.84;;;23.39;100.00
59608;BME280;45426;44.726;10.390;2022-09-01T01:09:32;100256.53;;;23.23;100.00
59608;BME280;45426;44.726;10.390;2022-09-01T01:12:02;100252.94;;;22.76;100.00
59608;BME280;45426;44.726;10.390;2022-09-01T01:14:28;100252.38;;;23.55;100.00
59608;BME280;45426;44.726;10.390;2022-09-01T01:16:57;100235.47;;;23.90;100.00
59608;BME280;45426;44.726;10.390;2022-09-01T01:22:20;100257.00;;;23.18;100.00
59608;BME280;45426;44.726;10.390;2022-09-01T01:25:05;100255.03;;;22.68;100.00
59608;BME280;45426;44.726;10.390;2022-09-01T01:27:33;100264.72;;;23.31;100.00
59608;BME280;45426;44.726;10.390;2022-09-01T01:30:02;100274.16;;;23.33;100.00
59608;BME280;45426;44.726;10.390;2022-09-01T01:32:30;100278.41;;;23.18;100.00
59608;BME280;45426;44.726;10.390;2022-09-01T01:34:57;100284.84;;;23.35;100.00
59608;BME280;45426;44.726;10.390;2022-09-01T01:37:26;100276.13;;;23.13;100.00
59608;BME280;45426;44.726;10.390;2022-09-01T01:39:51;100268.81;;;23.22;100.00
59608;BME280;45426;44.726;10.390;2022-09-01T01:42:17;100267.09;;;23.52;100.00
59608;BME280;45426;44.726;10.390;2022-09-01T01:44:42;100264.66;;;23.34;100.00
59608;BME280;45426;44.726;10.390;2022-09-01T01:47:11;100277.19;;;23.42;100.00
59608;BME280;45426;44.726;10.390;2022-09-01T01:49:39;100276.41;;;23.18;100.00
59608;BME280;45426;44.726;10.390;2022-09-01T01:52:09;100269.47;;;23.30;100.00
59608;BME280;45426;44.726;10.390;2022-09-01T01:54:34;100279.13;;;22.95;100.00
59608;BME280;45426;44.726;10.390;2022-09-01T01:57:00;100281.91;;;23.22;100.00
59608;BME280;45426;44.726;10.390;2022-09-01T01:59:28;100284.44;;;23.13;100.00
59608;BME280;45426;44.726;10.390;2022-09-01T02:01:54;100281.66;;;23.56;100.00
59608;BME280;45426;44.726;10.390;2022-09-01T02:04:21;100269.38;;;23.57;100.00
59608;BME280;45426;44.726;10.390;2022-09-01T02:06:47;100270.91;;;23.38;100.00
59608;BME280;45426;44.726;10.390;2022-09-01T02:09:16;100261.84;;;23.58;100.00
59608;BME280;45426;44.726;10.390;2022-09-01T02:11:42;100274.88;;;23.37;100.00
59608;BME280;45426;44.726;10.390;2022-09-01T02:14:11;100266.09;;;23.42;100.00
59608;BME280;45426;44.726;10.390;2022-09-01T02:16:37;100269.59;;;23.23;100.00
59608;BME280;45426;44.726;10.390;2022-09-01T02:19:05;100275.47;;;23.29;100.00
59608;BME280;45426;44.726;10.390;2022-09-01T02:21:31;100263.44;;;23.12;100.00
59608;BME280;45426;44.726;10.390;2022-09-01T02:24:05;100261.59;;;23.29;100.00
59608;BME280;45426;44.726;10.390;2022-09-01T02:26:37;100268.38;;;23.00;100.00
59608;BME280;45426;44.726;10.390;2022-09-01T02:29:07;100259.59;;;23.29;100.00
59608;BME280;45426;44.726;10.390;2022-09-01T02:31:34;100260.53;;;23.42;100.00
59608;BME280;45426;44.726;10.390;2022-09-01T02:34:03;100261.38;;;23.39;100.00
59608;BME280;45426;44.726;10.390;2022-09-01T02:36:29;100270.63;;;23.09;100.00
59608;BME280;45426;44.726;10.390;2022-09-01T02:38:57;100260.50;;;23.22;100.00
59608;BME280;45426;44.726;10.390;2022-09-01T02:41:22;100267.63;;;23.23;100.00
59608;BME280;45426;44.726;10.390;2022-09-01T02:43:51;100256.94;;;23.22;100.00
59608;BME280;45426;44.726;10.390;2022-09-01T02:46:17;100262.03;;;23.03;100.00
59608;BME280;45426;44.726;10.390;2022-09-01T02:48:50;100259.03;;;22.91;100.00
59608;BME280;45426;44.726;10.390;2022-09-01T02:51:18;100253.31;;;23.01;100.00
59608;BME280;45426;44.726;10.390;2022-09-01T02:53:45;100258.84;;;23.05;100.00
59608;BME280;45426;44.726;10.390;2022-09-01T02:56:16;100262.09;;;22.96;100.00
59608;BME280;45426;44.726;10.390;2022-09-01T02:58:43;100264.03;;;23.23;100.00
59608;BME280;45426;44.726;10.390;2022-09-01T03:01:19;100263.44;;;23.12;100.00
59608;BME280;45426;44.726;10.390;2022-09-01T03:03:51;100262.97;;;23.17;100.00
59608;BME280;45426;44.726;10.390;2022-09-01T03:06:18;100263.41;;;23.15;100.00
59608;BME280;45426;44.726;10.390;2022-09-01T03:08:49;100253.72;;;23.03;100.00
59608;BME280;45426;44.726;10.390;2022-09-01T03:11:15;100249.75;;;23.04;100.00
59608;BME280;45426;44.726;10.390;2022-09-01T03:13:42;100254.91;;;23.02;100.00
59608;BME280;45426;44.726;10.390;2022-09-01T03:16:09;100255.66;;;22.79;100.00
59608;BME280;45426;44.726;10.390;2022-09-01T03:18:35;100262.09;;;22.96;100.00
59608;BME280;45426;44.726;10.390;2022-09-01T03:21:01;100241.88;;;23.23;100.00
59608;BME280;45426;44.726;10.390;2022-09-01T03:23:28;100250.81;;;23.11;100.00
59608;BME280;45426;44.726;10.390;2022-09-01T03:25:55;100249.84;;;23.21;100.00
59608;BME280;45426;44.726;10.390;2022-09-01T03:28:21;100242.06;;;23.56;100.00
59608;BME280;45426;44.726;10.390;2022-09-01T03:30:50;100252.09;;;23.50;100.00
59608;BME280;45426;44.726;10.390;2022-09-01T03:33:17;100244.81;;;23.36;100.00
59608;BME280;45426;44.726;10.390;2022-09-01T03:35:43;100234.09;;;23.38;100.00
59608;BME280;45426;44.726;10.390;2022-09-01T03:38:10;100238.22;;;23.50;100.00
59608;BME280;45426;44.726;10.390;2022-09-01T03:40:37;100238.84;;;23.37;100.00
59608;BME280;45426;44.726;10.390;2022-09-01T03:43:04;100240.91;;;23.33;100.00
59608;BME280;45426;44.726;10.390;2022-09-01T03:45:31;100241.63;;;23.37;100.00
59608;BME280;45426;44.726;10.390;2022-09-01T03:48:06;100255.84;;;23.39;100.00
59608;BME280;45426;44.726;10.390;2022-09-01T03:50:34;100248.81;;;23.35;100.00
59608;BME280;45426;44.726;10.390;2022-09-01T03:53:00;100247.59;;;23.36;100.00
59608;BME280;45426;44.726;10.390;2022-09-01T03:55:29;100244.97;;;23.29;100.00
59608;BME280;45426;44.726;10.390;2022-09-01T03:57:59;100238.00;;;23.40;100.00
59608;BME280;45426;44.726;10.390;2022-09-01T04:00:27;100240.59;;;23.51;100.00
59608;BME280;45426;44.726;10.390;2022-09-01T04:02:57;100237.91;;;23.24;100.00
59608;BME280;45426;44.726;10.390;2022-09-01T04:05:24;100237.19;;;23.20;100.00
59608;BME280;45426;44.726;10.390;2022-09-01T04:07:55;100238.91;;;23.14;100.00
59608;BME280;45426;44.726;10.390;2022-09-01T04:10:21;100239.25;;;23.16;100.00
59608;BME280;45426;44.726;10.390;2022-09-01T04:12:47;100235.00;;;23.31;100.00
59608;BME280;45426;44.726;10.390;2022-09-01T04:15:15;100227.53;;;23.28;100.00
59608;BME280;45426;44.726;10.390;2022-09-01T04:17:44;100235.63;;;23.19;100.00
59608;BME280;45426;44.726;10.390;2022-09-01T04:20:28;100237.78;;;23.31;100.00
59608;BME280;45426;44.726;10.390;2022-09-01T04:22:54;100221.22;;;23.28;100.00
59608;BME280;45426;44.726;10.390;2022-09-01T04:25:20;100229.81;;;23.33;100.00
59608;BME280;45426;44.726;10.390;2022-09-01T04:27:51;100234.19;;;23.34;100.00
59608;BME280;45426;44.726;10.390;2022-09-01T04:30:23;100238.69;;;23.24;100.00
59608;BME280;45426;44.726;10.390;2022-09-01T04:32:58;100247.63;;;23.12;100.00
59608;BME280;45426;44.726;10.390;2022-09-01T04:35:24;100246.81;;;23.12;100.00
59608;BME280;45426;44.726;10.390;2022-09-01T04:37:57;100236.84;;;23.18;100.00
59608;BME280;45426;44.726;10.390;2022-09-01T04:40:23;100234.31;;;23.03;100.00
59608;BME280;45426;44.726;10.390;2022-09-01T04:42:48;100234.53;;;22.89;100.00
59608;BME280;45426;44.726;10.390;2022-09-01T04:45:15;100240.63;;;22.80;100.00
59608;BME280;45426;44.726;10.390;2022-09-01T04:47:40;100240.16;;;22.31;100.00
59608;BME280;45426;44.726;10.390;2022-09-01T04:50:08;100225.63;;;22.23;100.00
59608;BME280;45426;44.726;10.390;2022-09-01T04:52:45;100245.06;;;22.16;100.00
59608;BME280;45426;44.726;10.390;2022-09-01T04:55:13;100236.19;;;22.32;100.00
59608;BME280;45426;44.726;10.390;2022-09-01T04:57:46;100256.06;;;21.93;100.00
59608;BME280;45426;44.726;10.390;2022-09-01T05:00:18;100248.75;;;21.75;100.00
59608;BME280;45426;44.726;10.390;2022-09-01T05:02:53;100244.19;;;22.26;100.00
59608;BME280;45426;44.726;10.390;2022-09-01T05:05:28;100248.25;;;22.73;100.00
59608;BME280;45426;44.726;10.390;2022-09-01T05:07:54;100244.41;;;22.90;100.00
59608;BME280;45426;44.726;10.390;2022-09-01T05:10:21;100249.28;;;23.06;100.00
59608;BME280;45426;44.726;10.390;2022-09-01T05:12:47;100247.63;;;23.12;100.00
59608;BME280;45426;44.726;10.390;2022-09-01T05:15:14;100239.97;;;23.20;100.00
59608;BME280;45426;44.726;10.390;2022-09-01T05:17:40;100252.91;;;23.26;100.00
59608;BME280;45426;44.726;10.390;2022-09-01T05:20:06;100256.06;;;23.29;100.00
59608;BME280;45426;44.726;10.390;2022-09-01T05:22:33;100267.16;;;23.01;100.00
59608;BME280;45426;44.726;10.390;2022-09-01T05:25:00;100266.22;;;22.88;100.00
59608;BME280;45426;44.726;10.390;2022-09-01T05:27:41;100270.34;;;23.03;100.00
59608;BME280;45426;44.726;10.390;2022-09-01T05:30:15;100269.34;;;23.37;100.00
59608;BME280;45426;44.726;10.390;2022-09-01T05:32:43;100270.63;;;23.33;100.00
59608;BME280;45426;44.726;10.390;2022-09-01T05:35:11;100268.09;;;23.42;100.00
59608;BME280;45426;44.726;10.390;2022-09-01T05:37:37;100268.97;;;23.35;100.00
59608;BME280;45426;44.726;10.390;2022-09-01T05:40:06;100269.47;;;23.30;100.00
59608;BME280;45426;44.726;10.390;2022-09-01T05:42:33;100266.41;;;23.24;100.00
59608;BME280;45426;44.726;10.390;2022-09-01T05:45:01;100270.78;;;23.45;100.00
59608;BME280;45426;44.726;10.390;2022-09-01T05:47:28;100265.41;;;23.78;100.00
59608;BME280;45426;44.726;10.390;2022-09-01T05:49:53;100265.53;;;23.71;100.00
59608;BME280;45426;44.726;10.390;2022-09-01T05:52:22;100272.78;;;23.65;100.00
59608;BME280;45426;44.726;10.390;2022-09-01T05:54:50;100275.22;;;23.63;100.00
59608;BME280;45426;44.726;10.390;2022-09-01T05:57:16;100272.09;;;23.61;100.00
59608;BME280;45426;44.726;10.390;2022-09-01T05:59:44;100260.50;;;23.86;100.00
59608;BME280;45426;44.726;10.390;2022-09-01T06:02:11;100272.56;;;23.79;100.00
59608;BME280;45426;44.726;10.390;2022-09-01T06:04:37;100275.72;;;23.78;100.00
59608;BME280;45426;44.726;10.390;2022-09-01T06:07:11;100282.50;;;23.97;100.00
59608;BME280;45426;44.726;10.390;2022-09-01T06:09:45;100276.19;;;24.33;100.00
59608;BME280;45426;44.726;10.390;2022-09-01T06:12:13;100277.56;;;24.25;100.00
59608;BME280;45426;44.726;10.390;2022-09-01T06:14:51;100279.66;;;24.37;100.00
59608;BME280;45426;44.726;10.390;2022-09-01T06:17:19;100286.69;;;24.62;100.00
59608;BME280;45426;44.726;10.390;2022-09-01T06:19:52;100283.50;;;23.87;100.00
59608;BME280;45426;44.726;10.390;2022-09-01T06:22:20;100285.72;;;24.32;100.00
59608;BME280;45426;44.726;10.390;2022-09-01T06:24:47;100295.44;;;24.03;100.00
59608;BME280;45426;44.726;10.390;2022-09-01T06:27:16;100289.84;;;23.87;100.00
59608;BME280;45426;44.726;10.390;2022-09-01T06:29:42;100281.56;;;24.40;100.00
59608;BME280;45426;44.726;10.390;2022-09-01T06:32:08;100289.53;;;24.74;100.00
59608;BME280;45426;44.726;10.390;2022-09-01T06:34:37;100292.75;;;25.22;100.00
59608;BME280;45426;44.726;10.390;2022-09-01T06:37:03;100277.72;;;25.65;100.00
59608;BME280;45426;44.726;10.390;2022-09-01T06:39:29;100282.53;;;26.07;100.00
59608;BME280;45426;44.726;10.390;2022-09-01T06:41:56;100288.28;;;25.87;100.00
59608;BME280;45426;44.726;10.390;2022-09-01T06:44:22;100284.03;;;26.24;100.00
59608;BME280;45426;44.726;10.390;2022-09-01T06:46:49;100290.94;;;26.45;100.00
59608;BME280;45426;44.726;10.390;2022-09-01T06:49:15;100284.06;;;26.76;100.00
59608;BME280;45426;44.726;10.390;2022-09-01T06:51:40;100288.69;;;27.04;100.00
59608;BME280;45426;44.726;10.390;2022-09-01T06:54:05;100291.75;;;27.67;100.00
59608;BME280;45426;44.726;10.390;2022-09-01T06:56:32;100299.91;;;27.96;100.00
59608;BME280;45426;44.726;10.390;2022-09-01T06:59:00;100300.44;;;28.44;100.00
59608;BME280;45426;44.726;10.390;2022-09-01T07:01:30;100283.75;;;29.03;100.00
59608;BME280;45426;44.726;10.390;2022-09-01T07:03:56;100282.31;;;30.62;100.00
59608;BME280;45426;44.726;10.390;2022-09-01T07:06:23;100283.56;;;28.89;100.00
59608;BME280;45426;44.726;10.390;2022-09-01T07:08:55;100279.13;;;29.56;100.00
59608;BME280;45426;44.726;10.390;2022-09-01T07:11:25;100284.28;;;30.37;100.00
59608;BME280;45426;44.726;10.390;2022-09-01T07:13:57;100284.44;;;30.33;100.00
59608;BME280;45426;44.726;10.390;2022-09-01T07:16:24;100290.50;;;30.41;100.00
59608;BME280;45426;44.726;10.390;2022-09-01T07:18:52;100292.81;;;29.91;100.00
59608;BME280;45426;44.726;10.390;2022-09-01T07:21:20;100294.50;;;29.88;100.00
59608;BME280;45426;44.726;10.390;2022-09-01T07:23:46;100290.69;;;30.28;100.00
59608;BME280;45426;44.726;10.390;2022-09-01T07:26:12;100293.16;;;30.26;100.00
59608;BME280;45426;44.726;10.390;2022-09-01T07:28:44;100294.09;;;30.42;100.00
59608;BME280;45426;44.726;10.390;2022-09-01T07:31:17;100301.69;;;29.89;100.00
59608;BME280;45426;44.726;10.390;2022-09-01T07:33:45;100302.59;;;29.95;100.00
59608;BME280;45426;44.726;10.390;2022-09-01T07:36:13;100306.31;;;29.92;100.00
59608;BME280;45426;44.726;10.390;2022-09-01T07:38:39;100306.91;;;30.15;100.00
59608;BME280;45426;44.726;10.390;2022-09-01T07:41:33;100308.75;;;30.18;100.00
59608;BME280;45426;44.726;10.390;2022-09-01T07:43:59;100313.00;;;30.56;100.00
59608;BME280;45426;44.726;10.390;2022-09-01T07:46:28;100310.38;;;30.00;100.00
59608;BME280;45426;44.726;10.390;2022-09-01T07:48:56;100313.34;;;29.97;100.00
59608;BME280;45426;44.726;10.390;2022-09-01T07:51:24;100310.19;;;30.99;100.00
59608;BME280;45426;44.726;10.390;2022-09-01T07:53:49;100307.53;;;31.19;100.00
59608;BME280;45426;44.726;10.390;2022-09-01T07:56:17;100308.94;;;32.67;100.00
59608;BME280;45426;44.726;10.390;2022-09-01T07:58:48;100319.91;;;33.62;100.00
59608;BME280;45426;44.726;10.390;2022-09-01T08:01:18;100305.53;;;34.38;100.00
59608;BME280;45426;44.726;10.390;2022-09-01T08:03:46;100300.66;;;34.76;100.00
59608;BME280;45426;44.726;10.390;2022-09-01T08:06:15;100305.59;;;34.50;100.00
59608;BME280;45426;44.726;10.390;2022-09-01T08:08:48;100304.72;;;34.06;100.00
59608;BME280;45426;44.726;10.390;2022-09-01T08:11:19;100310.53;;;32.38;100.00
59608;BME280;45426;44.726;10.390;2022-09-01T08:13:45;100308.25;;;32.72;100.00
59608;BME280;45426;44.726;10.390;2022-09-01T08:16:12;100311.69;;;32.61;100.00
59608;BME280;45426;44.726;10.390;2022-09-01T08:18:41;100309.78;;;32.08;100.00
59608;BME280;45426;44.726;10.390;2022-09-01T08:21:10;100316.72;;;31.98;100.00
59608;BME280;45426;44.726;10.390;2022-09-01T08:23:36;100313.19;;;29.64;100.00
59608;BME280;45426;44.726;10.390;2022-09-01T08:26:07;100309.47;;;30.80;100.00
59608;BME280;45426;44.726;10.390;2022-09-01T08:28:33;100302.88;;;30.07;100.00
59608;BME280;45426;44.726;10.390;2022-09-01T08:30:59;100310.25;;;29.86;100.00
59608;BME280;45426;44.726;10.390;2022-09-01T08:33:25;100316.41;;;29.25;100.00
59608;BME280;45426;44.726;10.390;2022-09-01T08:35:51;100325.88;;;28.69;100.00
59608;BME280;45426;44.726;10.390;2022-09-01T08:38:17;100327.47;;;28.16;100.00
59608;BME280;45426;44.726;10.390;2022-09-01T08:40:50;100313.66;;;28.75;100.00
59608;BME280;45426;44.726;10.390;2022-09-01T08:45:48;100322.03;;;28.44;100.00
59608;BME280;45426;44.726;10.390;2022-09-01T08:50:53;100319.22;;;27.68;100.00
59608;BME280;45426;44.726;10.390;2022-09-01T08:55:50;100325.31;;;27.76;100.00
59608;BME280;45426;44.726;10.390;2022-09-01T08:58:18;100325.81;;;27.14;100.00
59608;BME280;45426;44.726;10.390;2022-09-01T09:00:49;100325.19;;;27.80;100.00
59608;BME280;45426;44.726;10.390;2022-09-01T09:03:41;100321.00;;;27.62;100.00
59608;BME280;45426;44.726;10.390;2022-09-01T09:06:16;100329.59;;;28.34;100.00
59608;BME280;45426;44.726;10.390;2022-09-01T09:17:48;100315.53;;;27.37;100.00
59608;BME280;45426;44.726;10.390;2022-09-01T09:20:17;100322.00;;;27.34;100.00
59608;BME280;45426;44.726;10.390;2022-09-01T09:22:44;100321.75;;;27.41;100.00
59608;BME280;45426;44.726;10.390;2022-09-01T09:25:17;100315.03;;;29.39;100.00
59608;BME280;45426;44.726;10.390;2022-09-01T09:27:45;100323.00;;;29.50;100.00
59608;BME280;45426;44.726;10.390;2022-09-01T09:32:50;100324.34;;;29.27;100.00
59608;BME280;45426;44.726;10.390;2022-09-01T09:43:29;100318.31;;;29.37;100.00
59608;BME280;45426;44.726;10.390;2022-09-01T09:46:19;100319.59;;;28.24;100.00
59608;BME280;45426;44.726;10.390;2022-09-01T09:48:45;100316.38;;;28.57;100.00
59608;BME280;45426;44.726;10.390;2022-09-01T09:51:18;100316.72;;;29.36;100.00
59608;BME280;45426;44.726;10.390;2022-09-01T09:53:44;100324.38;;;28.45;100.00
59608;BME280;45426;44.726;10.390;2022-09-01T09:56:18;100327.84;;;28.90;100.00
59608;BME280;45426;44.726;10.390;2022-09-01T09:58:45;100311.94;;;29.83;100.00
59608;BME280;45426;44.726;10.390;2022-09-01T10:03:47;100323.63;;;30.52;100.00
59608;BME280;45426;44.726;10.390;2022-09-01T10:08:58;100333.59;;;28.55;100.00
59608;BME280;45426;44.726;10.390;2022-09-01T10:11:41;100324.66;;;29.19;100.00
59608;BME280;45426;44.726;10.390;2022-09-01T10:14:16;100313.09;;;29.08;100.00
59608;BME280;45426;44.726;10.390;2022-09-01T10:16:46;100309.91;;;29.65;100.00
59608;BME280;45426;44.726;10.390;2022-09-01T10:19:14;100305.56;;;29.64;100.00
59608;BME280;45426;44.726;10.390;2022-09-01T10:21:42;100306.38;;;27.93;100.00
59608;BME280;45426;44.726;10.390;2022-09-01T10:24:19;100308.78;;;28.04;100.00
59608;BME280;45426;44.726;10.390;2022-09-01T10:26:52;100296.38;;;29.17;100.00
59608;BME280;45426;44.726;10.390;2022-09-01T10:29:34;100284.06;;;29.98;100.00
59608;BME280;45426;44.726;10.390;2022-09-01T10:32:07;100301.66;;;28.75;100.00
59608;BME280;45426;44.726;10.390;2022-09-01T10:34:38;100290.47;;;29.25;100.00
59608;BME280;45426;44.726;10.390;2022-09-01T10:37:05;100292.34;;;29.65;100.00
59608;BME280;45426;44.726;10.390;2022-09-01T10:39:31;100308.38;;;28.77;100.00
59608;BME280;45426;44.726;10.390;2022-09-01T10:41:58;100303.44;;;28.19;100.00
59608;BME280;45426;44.726;10.390;2022-09-01T10:44:33;100304.47;;;28.12;100.00
59608;BME280;45426;44.726;10.390;2022-09-01T10:47:11;100296.97;;;29.21;100.00
59608;BME280;45426;44.726;10.390;2022-09-01T10:55:17;100311.63;;;28.44;100.00
59608;BME280;45426;44.726;10.390;2022-09-01T10:57:52;100301.66;;;28.34;100.00
59608;BME280;45426;44.726;10.390;2022-09-01T11:11:05;100301.53;;;29.93;100.00
59608;BME280;45426;44.726;10.390;2022-09-01T11:16:25;100300.56;;;29.87;100.00
59608;BME280;45426;44.726;10.390;2022-09-01T11:18:52;100295.16;;;29.74;100.00
59608;BME280;45426;44.726;10.390;2022-09-01T11:21:28;100306.81;;;28.76;100.00
59608;BME280;45426;44.726;10.390;2022-09-01T11:24:42;100301.91;;;29.08;100.00
59608;BME280;45426;44.726;10.390;2022-09-01T11:26:58;100291.72;;;29.88;100.00
59608;BME280;45426;44.726;10.390;2022-09-01T11:29:49;100308.16;;;29.12;100.00
59608;BME280;45426;44.726;10.390;2022-09-01T11:32:19;100298.53;;;28.01;100.00
59608;BME280;45426;44.726;10.390;2022-09-01T11:34:47;100298.81;;;28.25;100.00
59608;BME280;45426;44.726;10.390;2022-09-01T11:37:18;100303.94;;;27.60;100.00
59608;BME280;45426;44.726;10.390;2022-09-01T11:39:50;100300.69;;;27.62;100.00
59608;BME280;45426;44.726;10.390;2022-09-01T11:45:03;100304.63;;;28.08;100.00
59608;BME280;45426;44.726;10.390;2022-09-01T11:47:39;100302.47;;;28.75;100.00
59608;BME280;45426;44.726;10.390;2022-09-01T11:50:16;100298.56;;;27.66;100.00
59608;BME280;45426;44.726;10.390;2022-09-01T11:52:55;100300.28;;;28.70;100.00
59608;BME280;45426;44.726;10.390;2022-09-01T11:55:47;100304.41;;;27.11;100.00
59608;BME280;45426;44.726;10.390;2022-09-01T12:00:56;100304.06;;;28.95;100.00
59608;BME280;45426;44.726;10.390;2022-09-01T12:03:28;100292.44;;;29.06;100.00
59608;BME280;45426;44.726;10.390;2022-09-01T12:05:59;100303.06;;;28.39;100.00
59608;BME280;45426;44.726;10.390;2022-09-01T12:08:30;100294.22;;;28.72;100.00
59608;BME280;45426;44.726;10.390;2022-09-01T12:11:33;100285.13;;;28.49;100.00
59608;BME280;45426;44.726;10.390;2022-09-01T12:16:29;100294.19;;;29.40;100.00
59608;BME280;45426;44.726;10.390;2022-09-01T12:18:56;100293.88;;;28.29;100.00
59608;BME280;45426;44.726;10.390;2022-09-01T12:21:29;100295.34;;;28.12;100.00
59608;BME280;45426;44.726;10.390;2022-09-01T12:26:36;100284.25;;;28.30;100.00
59608;BME280;45426;44.726;10.390;2022-09-01T12:29:03;100284.81;;;28.97;100.00
59608;BME280;45426;44.726;10.390;2022-09-01T12:31:29;100296.22;;;27.64;100.00
59608;BME280;45426;44.726;10.390;2022-09-01T12:33:55;100278.59;;;28.93;100.00
59608;BME280;45426;44.726;10.390;2022-09-01T12:37:07;100293.41;;;28.62;100.00
59608;BME280;45426;44.726;10.390;2022-09-01T12:39:55;100286.63;;;28.10;100.00
59608;BME280;45426;44.726;10.390;2022-09-01T12:44:54;100291.38;;;28.31;100.00
59608;BME280;45426;44.726;10.390;2022-09-01T12:49:59;100267.63;;;29.72;100.00
59608;BME280;45426;44.726;10.390;2022-09-01T12:52:26;100272.09;;;28.96;100.00
59608;BME280;45426;44.726;10.390;2022-09-01T12:55:08;100272.94;;;28.74;100.00
59608;BME280;45426;44.726;10.390;2022-09-01T12:57:40;100268.63;;;28.42;100.00
59608;BME280;45426;44.726;10.390;2022-09-01T13:00:21;100269.66;;;27.95;100.00
59608;BME280;45426;44.726;10.390;2022-09-01T13:07:42;100272.75;;;28.59;100.00
59608;BME280;45426;44.726;10.390;2022-09-01T13:10:08;100271.59;;;28.48;100.00
59608;BME280;45426;44.726;10.390;2022-09-01T13:12:39;100264.66;;;28.21;100.00
59608;BME280;45426;44.726;10.390;2022-09-01T13:15:06;100261.78;;;28.83;100.00
59608;BME280;45426;44.726;10.390;2022-09-01T13:17:32;100275.47;;;28.81;100.00
59608;BME280;45426;44.726;10.390;2022-09-01T13:20:00;100273.06;;;28.61;100.00
59608;BME280;45426;44.726;10.390;2022-09-01T13:22:25;100266.56;;;28.33;100.00
59608;BME280;45426;44.726;10.390;2022-09-01T13:24:51;100257.94;;;28.99;100.00
59608;BME280;45426;44.726;10.390;2022-09-01T13:27:16;100261.97;;;28.98;100.00
59608;BME280;45426;44.726;10.390;2022-09-01T13:29:45;100267.63;;;29.17;100.00
59608;BME280;45426;44.726;10.390;2022-09-01T13:32:11;100258.94;;;29.42;100.00
59608;BME280;45426;44.726;10.390;2022-09-01T13:34:39;100257.47;;;29.93;100.00
59608;BME280;45426;44.726;10.390;2022-09-01T13:37:05;100261.03;;;28.83;100.00
59608;BME280;45426;44.726;10.390;2022-09-01T13:39:30;100258.94;;;28.65;100.00
59608;BME280;45426;44.726;10.390;2022-09-01T13:41:56;100259.84;;;29.21;100.00
59608;BME280;45426;44.726;10.390;2022-09-01T13:44:22;100247.22;;;28.98;100.00
59608;BME280;45426;44.726;10.390;2022-09-01T13:46:47;100255.78;;;29.13;100.00
59608;BME280;45426;44.726;10.390;2022-09-01T13:49:12;100253.88;;;28.82;100.00
59608;BME280;45426;44.726;10.390;2022-09-01T13:51:38;100249.72;;;28.96;100.00
59608;BME280;45426;44.726;10.390;2022-09-01T13:54:04;100254.66;;;28.11;100.00
59608;BME280;45426;44.726;10.390;2022-09-01T13:56:29;100246.34;;;28.20;100.00
59608;BME280;45426;44.726;10.390;2022-09-01T13:58:55;100256.59;;;28.63;100.00